Time;durP1;ratioP1;P1;durP2;ratioP2;P2;SDS_P1;SDS_P2;PMS_P1;PMS_P2;Temp;Humidity;BMP_temperature;BMP_pressure;BME280_temperature;BME280_humidity;BME280_pressure;Samples;Min_cycle;Max_cycle;Signal;HPM_P1;HPM_P2
2023/09/16 00:01:37;;;;;;;6.20;3.90;;;;;;;;;;5090453;28;20127;-61
2023/09/16 00:04:04;;;;;;;9.00;4.45;;;;;;;;;;5090649;28;20156;-62
2023/09/16 00:06:30;;;;;;;6.72;4.28;;;;;;;;;;5090333;28;20044;-61
2023/09/16 00:08:57;;;;;;;7.75;4.00;;;;;;;;;;5090296;28;20040;-61
2023/09/16 00:11:25;;;;;;;6.03;4.28;;;;;;;;;;5090380;28;20036;-61
2023/09/16 00:13:52;;;;;;;8.95;4.32;;;;;;;;;;5090706;28;20040;-62
2023/09/16 00:16:18;;;;;;;11.00;4.28;;;;;;;;;;5090338;28;20048;-61
2023/09/16 00:18:45;;;;;;;9.95;4.40;;;;;;;;;;5089986;28;20139;-62
2023/09/16 00:21:14;;;;;;;9.32;3.60;;;;;;;;;;5090007;28;20117;-61
2023/09/16 00:23:42;;;;;;;6.88;4.05;;;;;;;;;;5090062;28;20074;-62
2023/09/16 00:26:08;;;;;;;6.00;4.05;;;;;;;;;;5089940;28;20039;-62
2023/09/16 00:28:35;;;;;;;8.30;4.75;;;;;;;;;;5089847;28;20048;-62
2023/09/16 00:31:03;;;;;;;7.88;3.85;;;;;;;;;;5090297;28;20134;-61
2023/09/16 00:33:29;;;;;;;9.73;4.00;;;;;;;;;;5089975;28;20420;-61
2023/09/16 00:35:56;;;;;;;8.80;4.25;;;;;;;;;;5089133;28;20081;-61
2023/09/16 00:38:23;;;;;;;7.82;4.47;;;;;;;;;;5089768;28;20101;-62
2023/09/16 00:40:49;;;;;;;9.30;4.25;;;;;;;;;;5089040;28;20051;-61
2023/09/16 00:43:16;;;;;;;6.38;3.75;;;;;;;;;;5089710;28;20079;-61
2023/09/16 00:45:42;;;;;;;8.98;4.05;;;;;;;;;;5089759;28;20075;-61
2023/09/16 00:48:12;;;;;;;6.97;4.25;;;;;;;;;;5089124;28;20136;-61
2023/09/16 00:50:39;;;;;;;7.13;4.15;;;;;;;;;;5089808;28;20051;-61
2023/09/16 00:53:05;;;;;;;6.18;3.83;;;;;;;;;;5089169;28;20144;-61
2023/09/16 00:55:32;;;;;;;8.05;4.10;;;;;;;;;;5089703;28;20127;-62
2023/09/16 00:57:59;;;;;;;9.15;4.38;;;;;;;;;;5089677;28;20402;-61
2023/09/16 01:00:28;;;;;;;11.27;5.57;;;;;;;;;;5088682;28;20105;-63
2023/09/16 01:02:56;;;;;;;14.43;7.32;;;;;;;;;;5089393;28;20040;-62
2023/09/16 01:05:22;;;;;;;12.48;6.10;;;;;;;;;;5089422;28;20105;-61
2023/09/16 01:07:50;;;;;;;13.85;6.63;;;;;;;;;;5089269;28;20048;-62
2023/09/16 01:10:20;;;;;;;9.13;4.85;;;;;;;;;;5089226;28;20083;-61
2023/09/16 01:12:48;;;;;;;6.68;4.97;;;;;;;;;;5088965;28;20059;-62
2023/09/16 01:15:15;;;;;;;7.60;4.03;;;;;;;;;;5089123;28;20054;-61
2023/09/16 01:17:54;;;;;;;9.88;4.43;;;;;;;;;;5089047;28;20036;-62
2023/09/16 01:20:21;;;;;;;8.35;4.03;;;;;;;;;;5089361;28;20044;-62
2023/09/16 01:22:48;;;;;;;9.52;4.38;;;;;;;;;;5089286;28;20105;-61
2023/09/16 01:25:15;;;;;;;7.20;4.13;;;;;;;;;;5089280;28;20064;-61
2023/09/16 01:27:42;;;;;;;7.97;3.97;;;;;;;;;;5089019;28;20052;-62
2023/09/16 01:30:09;;;;;;;14.07;4.63;;;;;;;;;;5089039;28;20040;-61
2023/09/16 01:32:46;;;;;;;10.10;4.50;;;;;;;;;;5088651;28;20048;-61
2023/09/16 01:35:14;;;;;;;7.57;3.80;;;;;;;;;;5088661;28;20044;-61
2023/09/16 01:37:43;;;;;;;8.77;4.50;;;;;;;;;;5088394;28;20132;-61
2023/09/16 01:40:11;;;;;;;7.55;3.97;;;;;;;;;;5088654;28;20039;-61
2023/09/16 01:42:38;;;;;;;11.27;5.50;;;;;;;;;;5088663;28;20131;-61
2023/09/16 01:45:05;;;;;;;9.57;3.70;;;;;;;;;;5088871;28;20043;-61
2023/09/16 01:47:31;;;;;;;5.28;3.50;;;;;;;;;;5088839;28;20067;-61
2023/09/16 01:49:58;;;;;;;9.00;4.15;;;;;;;;;;5088631;28;20044;-61
2023/09/16 01:52:24;;;;;;;8.98;3.97;;;;;;;;;;5088645;28;20036;-61
2023/09/16 01:54:51;;;;;;;6.72;4.70;;;;;;;;;;5088321;28;20093;-61
2023/09/16 01:57:17;;;;;;;9.63;4.15;;;;;;;;;;5088747;28;20036;-61
2023/09/16 01:59:44;;;;;;;7.88;3.90;;;;;;;;;;5088213;28;20098;-61
2023/09/16 02:02:11;;;;;;;7.13;4.30;;;;;;;;;;5088524;28;20068;-61
2023/09/16 02:04:43;;;;;;;6.20;3.92;;;;;;;;;;5088719;28;20123;-61
2023/09/16 02:07:10;;;;;;;8.55;4.13;;;;;;;;;;5088905;28;20048;-61
2023/09/16 02:09:37;;;;;;;9.77;4.35;;;;;;;;;;5088383;28;20036;-61
2023/09/16 02:12:03;;;;;;;19.08;5.10;;;;;;;;;;5088052;28;20039;-61
2023/09/16 02:14:30;;;;;;;7.90;4.43;;;;;;;;;;5089154;28;20602;-61
2023/09/16 02:16:56;;;;;;;13.98;4.57;;;;;;;;;;5088718;28;20131;-61
2023/09/16 02:19:23;;;;;;;6.65;4.13;;;;;;;;;;5088320;28;20040;-61
2023/09/16 02:21:50;;;;;;;9.55;4.13;;;;;;;;;;5088299;28;20068;-61
2023/09/16 02:24:16;;;;;;;5.80;4.05;;;;;;;;;;5088186;28;20041;-60
2023/09/16 02:26:42;;;;;;;5.15;3.35;;;;;;;;;;5088420;28;20048;-61
2023/09/16 02:29:09;;;;;;;6.47;4.07;;;;;;;;;;5087970;28;20464;-61
2023/09/16 02:31:35;;;;;;;7.65;4.13;;;;;;;;;;5087079;28;20032;-61
2023/09/16 02:34:02;;;;;;;5.95;4.05;;;;;;;;;;5088118;28;20043;-61
2023/09/16 02:36:29;;;;;;;5.68;3.72;;;;;;;;;;5088157;28;20047;-62
2023/09/16 02:38:55;;;;;;;8.45;4.40;;;;;;;;;;5088179;28;20072;-61
2023/09/16 02:41:21;;;;;;;8.18;3.47;;;;;;;;;;5088131;28;20657;-60
2023/09/16 02:43:48;;;;;;;6.50;4.03;;;;;;;;;;5088138;28;20130;-61
2023/09/16 02:46:14;;;;;;;9.40;4.68;;;;;;;;;;5086733;28;20130;-60
2023/09/16 02:48:41;;;;;;;5.80;3.40;;;;;;;;;;5086486;28;20472;-61
2023/09/16 02:51:09;;;;;;;6.70;3.92;;;;;;;;;;5088128;28;20086;-61
2023/09/16 02:53:36;;;;;;;8.77;4.13;;;;;;;;;;5088175;28;20048;-61
2023/09/16 02:56:03;;;;;;;6.78;4.38;;;;;;;;;;5087892;28;20087;-61
2023/09/16 02:58:30;;;;;;;7.22;4.05;;;;;;;;;;5087677;28;20135;-60
2023/09/16 03:00:56;;;;;;;6.70;3.78;;;;;;;;;;5087984;28;20075;-62
2023/09/16 03:03:23;;;;;;;5.75;3.58;;;;;;;;;;5087937;28;20093;-61
2023/09/16 03:05:49;;;;;;;5.63;3.63;;;;;;;;;;5087843;28;20674;-61
2023/09/16 03:08:16;;;;;;;5.97;3.50;;;;;;;;;;5087647;28;20075;-60
2023/09/16 03:10:44;;;;;;;7.10;3.95;;;;;;;;;;5087877;28;20119;-60
2023/09/16 03:13:11;;;;;;;11.63;4.32;;;;;;;;;;5087776;28;20500;-61
2023/09/16 03:15:43;;;;;;;5.45;3.67;;;;;;;;;;5087865;28;20051;-61
2023/09/16 03:18:10;;;;;;;7.00;4.00;;;;;;;;;;5087593;28;20048;-61
2023/09/16 03:20:36;;;;;;;14.48;4.45;;;;;;;;;;5088058;28;20044;-60
2023/09/16 03:23:03;;;;;;;8.13;4.43;;;;;;;;;;5088017;28;20551;-62
2023/09/16 03:25:29;;;;;;;9.43;4.38;;;;;;;;;;5091302;28;20117;-61
2023/09/16 03:27:55;;;;;;;7.18;4.20;;;;;;;;;;5091039;28;20062;-60
2023/09/16 03:30:22;;;;;;;6.80;4.25;;;;;;;;;;5091213;28;20052;-60
2023/09/16 03:32:48;;;;;;;8.23;4.05;;;;;;;;;;5091021;28;20036;-62
2023/09/16 03:35:15;;;;;;;7.68;3.60;;;;;;;;;;5091179;28;20040;-62
2023/09/16 03:37:41;;;;;;;6.50;3.80;;;;;;;;;;5091386;28;20158;-61
2023/09/16 03:40:08;;;;;;;8.95;4.28;;;;;;;;;;5091010;28;20036;-61
2023/09/16 03:42:34;;;;;;;7.75;3.83;;;;;;;;;;5090984;28;20048;-60
2023/09/16 03:45:01;;;;;;;7.20;3.33;;;;;;;;;;5090667;28;20066;-61
2023/09/16 03:47:37;;;;;;;10.88;3.72;;;;;;;;;;5090853;28;20431;-61
2023/09/16 03:50:04;;;;;;;7.25;4.10;;;;;;;;;;5090801;28;20480;-61
2023/09/16 03:52:30;;;;;;;7.60;4.18;;;;;;;;;;5090577;28;20040;-61
2023/09/16 03:54:57;;;;;;;8.32;3.72;;;;;;;;;;5090432;28;20492;-61
2023/09/16 03:57:23;;;;;;;11.18;4.95;;;;;;;;;;5090822;28;20126;-64
2023/09/16 03:59:50;;;;;;;5.22;3.63;;;;;;;;;;5091099;28;20048;-60
2023/09/16 04:02:17;;;;;;;8.00;3.75;;;;;;;;;;5090609;28;20129;-60
2023/09/16 04:04:43;;;;;;;7.82;4.07;;;;;;;;;;5090558;28;20131;-60
2023/09/16 04:07:09;;;;;;;13.68;4.78;;;;;;;;;;5090427;28;20036;-60
2023/09/16 04:09:36;;;;;;;6.07;3.72;;;;;;;;;;5090586;28;20066;-60
2023/09/16 04:12:02;;;;;;;8.20;4.53;;;;;;;;;;5089984;28;20040;-60
2023/09/16 04:14:29;;;;;;;6.57;4.30;;;;;;;;;;5090182;28;20468;-60
2023/09/16 04:16:55;;;;;;;7.43;3.58;;;;;;;;;;5090040;28;20123;-60
2023/09/16 04:19:22;;;;;;;8.48;4.15;;;;;;;;;;5090377;28;20117;-61
2023/09/16 04:21:49;;;;;;;8.10;3.83;;;;;;;;;;5090370;28;20504;-61
2023/09/16 04:24:16;;;;;;;9.80;4.07;;;;;;;;;;5090401;28;20372;-61
2023/09/16 04:26:42;;;;;;;9.52;3.83;;;;;;;;;;5089874;28;20119;-61
2023/09/16 04:29:09;;;;;;;9.23;3.53;;;;;;;;;;5089773;28;20135;-60
2023/09/16 04:31:37;;;;;;;9.30;4.75;;;;;;;;;;5089988;28;20082;-60
2023/09/16 04:34:04;;;;;;;9.00;4.43;;;;;;;;;;5090016;28;20043;-60
2023/09/16 04:36:30;;;;;;;7.32;3.85;;;;;;;;;;5090969;28;20101;-60
2023/09/16 04:38:57;;;;;;;6.40;3.47;;;;;;;;;;5090270;28;20055;-60
2023/09/16 04:41:24;;;;;;;6.03;4.07;;;;;;;;;;5090092;28;20044;-60
2023/09/16 04:43:51;;;;;;;8.70;4.88;;;;;;;;;;5090025;28;20075;-61
2023/09/16 04:46:18;;;;;;;7.70;3.55;;;;;;;;;;5089861;28;20073;-60
2023/09/16 04:48:45;;;;;;;7.00;4.38;;;;;;;;;;5089579;28;20040;-60
2023/09/16 04:51:11;;;;;;;5.82;3.97;;;;;;;;;;5089557;28;20555;-60
2023/09/16 04:53:38;;;;;;;10.93;4.68;;;;;;;;;;5089497;28;20101;-60
2023/09/16 04:56:10;;;;;;;14.27;4.63;;;;;;;;;;5089589;28;20079;-60
2023/09/16 04:58:37;;;;;;;8.82;3.78;;;;;;;;;;5079432;28;20076;-61
2023/09/16 05:01:04;;;;;;;7.15;4.15;;;;;;;;;;5068964;28;20369;-60
2023/09/16 05:03:31;;;;;;;7.25;3.65;;;;;;;;;;5069036;28;20068;-61
2023/09/16 05:05:58;;;;;;;6.47;3.67;;;;;;;;;;5069829;28;20068;-60
2023/09/16 05:08:24;;;;;;;6.72;3.95;;;;;;;;;;5069139;28;20424;-60
2023/09/16 05:10:51;;;;;;;9.98;4.45;;;;;;;;;;5068968;28;20110;-60
2023/09/16 05:13:18;;;;;;;7.60;4.03;;;;;;;;;;5069018;28;20144;-60
2023/09/16 05:15:47;;;;;;;8.57;4.47;;;;;;;;;;5068558;28;20039;-60
2023/09/16 05:18:14;;;;;;;7.38;3.83;;;;;;;;;;5068966;28;20048;-60
2023/09/16 05:20:41;;;;;;;10.15;4.32;;;;;;;;;;5068966;28;20041;-60
2023/09/16 05:23:07;;;;;;;6.03;3.47;;;;;;;;;;5069031;28;20106;-61
2023/09/16 05:25:34;;;;;;;5.93;4.07;;;;;;;;;;5068783;28;20044;-60
2023/09/16 05:28:00;;;;;;;5.80;3.67;;;;;;;;;;5068848;28;20543;-60
2023/09/16 05:30:27;;;;;;;8.88;4.13;;;;;;;;;;5068813;28;20049;-61
2023/09/16 05:32:53;;;;;;;7.75;3.53;;;;;;;;;;5086616;28;20035;-60
2023/09/16 05:35:19;;;;;;;7.95;4.07;;;;;;;;;;5088760;28;20036;-60
2023/09/16 05:37:46;;;;;;;5.32;3.50;;;;;;;;;;5088609;28;20423;-60
2023/09/16 05:40:12;;;;;;;7.15;4.18;;;;;;;;;;5088755;28;20151;-60
2023/09/16 05:42:39;;;;;;;5.85;4.20;;;;;;;;;;5088567;28;20040;-63
2023/09/16 05:45:06;;;;;;;8.90;4.20;;;;;;;;;;5088761;28;20040;-60
2023/09/16 05:47:32;;;;;;;9.57;4.30;;;;;;;;;;5088008;28;20520;-61
2023/09/16 05:49:59;;;;;;;6.55;3.88;;;;;;;;;;5088933;28;20101;-61
2023/09/16 05:52:26;;;;;;;6.72;3.53;;;;;;;;;;5088771;28;20040;-60
2023/09/16 05:54:52;;;;;;;9.27;4.32;;;;;;;;;;5088469;28;20101;-61
2023/09/16 05:57:18;;;;;;;8.52;4.00;;;;;;;;;;5088433;28;20050;-60
2023/09/16 05:59:45;;;;;;;9.82;3.90;;;;;;;;;;5068608;28;20140;-60
2023/09/16 06:02:12;;;;;;;8.95;5.03;;;;;;;;;;5068055;28;20131;-60
2023/09/16 06:04:38;;;;;;;9.57;4.45;;;;;;;;;;5068243;28;20369;-61
2023/09/16 06:07:05;;;;;;;9.65;4.40;;;;;;;;;;5068014;28;20040;-60
2023/09/16 06:09:32;;;;;;;13.43;3.85;;;;;;;;;;5068478;28;20200;-60
2023/09/16 06:11:58;;;;;;;9.68;4.32;;;;;;;;;;5068461;28;20087;-61
2023/09/16 06:14:25;;;;;;;6.40;4.20;;;;;;;;;;5068402;28;20075;-61
2023/09/16 06:16:51;;;;;;;16.77;5.28;;;;;;;;;;5068304;28;20091;-60
2023/09/16 06:19:19;;;;;;;10.77;3.78;;;;;;;;;;5068330;28;20480;-61
2023/09/16 06:21:46;;;;;;;8.05;4.20;;;;;;;;;;5068322;28;20047;-60
2023/09/16 06:24:12;;;;;;;12.18;5.40;;;;;;;;;;5068154;28;20044;-60
2023/09/16 06:26:39;;;;;;;10.80;3.80;;;;;;;;;;5067882;28;20086;-61
2023/09/16 06:29:05;;;;;;;14.48;4.32;;;;;;;;;;5067674;28;20083;-60
2023/09/16 06:31:32;;;;;;;7.40;4.20;;;;;;;;;;5074543;28;20115;-62
2023/09/16 06:33:58;;;;;;;5.80;3.45;;;;;;;;;;5088244;28;20044;-61
2023/09/16 06:36:25;;;;;;;8.30;3.88;;;;;;;;;;5088464;28;20048;-61
2023/09/16 06:38:51;;;;;;;9.65;3.90;;;;;;;;;;5087792;28;20105;-61
2023/09/16 06:41:18;;;;;;;6.72;3.40;;;;;;;;;;5087959;28;20079;-61
2023/09/16 06:43:44;;;;;;;8.57;4.03;;;;;;;;;;5087630;28;20090;-61
2023/09/16 06:46:10;;;;;;;8.40;4.00;;;;;;;;;;5087836;28;20044;-60
2023/09/16 06:48:37;;;;;;;7.75;3.95;;;;;;;;;;5087890;28;20044;-61
2023/09/16 06:51:04;;;;;;;6.72;3.47;;;;;;;;;;5087886;28;20727;-60
2023/09/16 06:53:31;;;;;;;6.55;3.78;;;;;;;;;;5087914;28;20084;-62
2023/09/16 06:55:58;;;;;;;7.55;3.10;;;;;;;;;;5088352;28;20044;-61
2023/09/16 06:58:24;;;;;;;4.47;3.55;;;;;;;;;;5081493;28;20090;-61
2023/09/16 07:00:51;;;;;;;14.30;3.95;;;;;;;;;;5072683;28;20051;-60
2023/09/16 07:03:17;;;;;;;8.05;4.00;;;;;;;;;;5071388;28;20166;-60
2023/09/16 07:05:44;;;;;;;10.20;3.20;;;;;;;;;;5071351;28;20042;-60
2023/09/16 07:08:11;;;;;;;7.85;3.95;;;;;;;;;;5071245;28;20048;-60
2023/09/16 07:10:37;;;;;;;10.02;3.53;;;;;;;;;;5071114;28;20076;-60
2023/09/16 07:13:04;;;;;;;5.72;3.53;;;;;;;;;;5070828;28;20040;-60
2023/09/16 07:15:30;;;;;;;8.98;3.88;;;;;;;;;;5071018;28;20051;-60
2023/09/16 07:17:57;;;;;;;11.25;4.35;;;;;;;;;;5070909;28;20080;-61
2023/09/16 07:20:23;;;;;;;7.32;3.75;;;;;;;;;;5071333;28;20048;-60
2023/09/16 07:22:52;;;;;;;6.95;3.75;;;;;;;;;;5071135;28;20079;-60
2023/09/16 07:25:19;;;;;;;7.97;3.45;;;;;;;;;;5071053;28;20124;-60
2023/09/16 07:27:45;;;;;;;7.03;3.67;;;;;;;;;;5070747;28;20691;-62
2023/09/16 07:30:14;;;;;;;7.80;3.65;;;;;;;;;;5070622;28;20055;-62
2023/09/16 07:32:42;;;;;;;8.60;2.97;;;;;;;;;;5086853;28;20112;-62
2023/09/16 07:35:08;;;;;;;6.47;3.60;;;;;;;;;;5090978;28;20044;-62
2023/09/16 07:37:35;;;;;;;5.53;3.35;;;;;;;;;;5091036;28;20072;-62
2023/09/16 07:40:01;;;;;;;8.13;3.05;;;;;;;;;;5091007;28;20086;-62
2023/09/16 07:42:28;;;;;;;6.15;3.42;;;;;;;;;;5091337;28;20036;-62
2023/09/16 07:44:54;;;;;;;5.10;3.50;;;;;;;;;;5091147;28;20075;-61
2023/09/16 07:47:21;;;;;;;9.27;3.88;;;;;;;;;;5090629;28;20055;-62
2023/09/16 07:49:47;;;;;;;8.27;3.80;;;;;;;;;;5090672;28;20071;-62
2023/09/16 07:52:14;;;;;;;7.70;3.50;;;;;;;;;;5090646;28;20036;-62
2023/09/16 07:54:42;;;;;;;6.25;3.83;;;;;;;;;;5090461;28;20044;-62
2023/09/16 07:57:08;;;;;;;5.63;3.70;;;;;;;;;;5090591;28;20063;-62
2023/09/16 07:59:35;;;;;;;6.72;3.75;;;;;;;;;;5072108;28;20045;-61
2023/09/16 08:02:03;;;;;;;6.63;3.45;;;;;;;;;;5069934;28;20671;-62
2023/09/16 08:04:31;;;;;;;5.63;3.60;;;;;;;;;;5070224;28;20045;-62
2023/09/16 08:06:58;;;;;;;9.85;4.82;;;;;;;;;;5070178;28;20041;-62
2023/09/16 08:09:24;;;;;;;10.32;4.60;;;;;;;;;;5069318;28;20048;-62
2023/09/16 08:11:51;;;;;;;6.30;3.30;;;;;;;;;;5070007;28;20697;-62
2023/09/16 08:14:17;;;;;;;7.97;3.78;;;;;;;;;;5069564;28;20480;-59
2023/09/16 08:16:43;;;;;;;6.82;3.70;;;;;;;;;;5069723;28;20502;-63
2023/09/16 08:19:12;;;;;;;8.00;2.88;;;;;;;;;;5069262;28;20045;-60
2023/09/16 08:21:38;;;;;;;7.53;2.88;;;;;;;;;;5069799;28;20415;-62
2023/09/16 08:24:04;;;;;;;10.30;3.50;;;;;;;;;;5069745;28;20044;-60
2023/09/16 08:26:31;;;;;;;4.30;3.00;;;;;;;;;;5070320;28;20147;-62
2023/09/16 08:28:57;;;;;;;6.03;3.08;;;;;;;;;;5070194;28;20048;-62
2023/09/16 08:31:24;;;;;;;9.43;3.20;;;;;;;;;;5074669;28;20090;-60
2023/09/16 08:33:51;;;;;;;9.48;3.88;;;;;;;;;;5089571;28;20048;-60
2023/09/16 08:36:17;;;;;;;5.60;3.15;;;;;;;;;;5089406;28;20047;-60
2023/09/16 08:38:43;;;;;;;7.22;3.67;;;;;;;;;;5089202;28;20048;-60
2023/09/16 08:41:27;;;;;;;8.32;3.25;;;;;;;;;;5089391;28;20155;-60
2023/09/16 08:43:56;;;;;;;7.68;3.50;;;;;;;;;;5089060;28;20135;-61
2023/09/16 08:46:23;;;;;;;6.70;4.30;;;;;;;;;;5089350;28;20127;-60
2023/09/16 08:48:50;;;;;;;6.47;3.00;;;;;;;;;;5089297;28;20079;-61
2023/09/16 08:51:18;;;;;;;7.22;3.00;;;;;;;;;;5089714;28;20097;-60
2023/09/16 08:53:45;;;;;;;9.40;3.25;;;;;;;;;;5087715;28;20085;-61
2023/09/16 08:56:12;;;;;;;6.82;3.33;;;;;;;;;;5088961;28;20429;-60
2023/09/16 08:58:39;;;;;;;5.97;3.03;;;;;;;;;;5078171;28;20065;-60
2023/09/16 09:01:06;;;;;;;4.93;2.92;;;;;;;;;;5068561;28;20480;-61
2023/09/16 09:03:33;;;;;;;6.30;3.53;;;;;;;;;;5068548;28;20048;-61
2023/09/16 09:05:59;;;;;;;31.58;5.32;;;;;;;;;;5068885;28;20099;-61
2023/09/16 09:08:26;;;;;;;6.22;2.92;;;;;;;;;;5068652;28;20147;-60
2023/09/16 09:10:52;;;;;;;5.32;3.47;;;;;;;;;;5068891;28;20084;-61
2023/09/16 09:13:19;;;;;;;7.15;2.90;;;;;;;;;;5068941;28;20063;-62
2023/09/16 09:15:47;;;;;;;7.85;3.15;;;;;;;;;;5068628;28;20048;-61
2023/09/16 09:18:15;;;;;;;9.73;2.95;;;;;;;;;;5068346;28;20117;-60
2023/09/16 09:20:42;;;;;;;7.50;3.95;;;;;;;;;;5067725;28;20076;-60
2023/09/16 09:23:08;;;;;;;4.70;3.10;;;;;;;;;;5067747;28;20508;-60
2023/09/16 09:25:41;;;;;;;6.82;3.08;;;;;;;;;;5067952;28;20504;-61
2023/09/16 09:28:07;;;;;;;5.63;3.00;;;;;;;;;;5067729;28;20464;-61
2023/09/16 09:30:34;;;;;;;6.28;2.80;;;;;;;;;;5067851;28;20073;-61
2023/09/16 09:33:01;;;;;;;6.15;3.42;;;;;;;;;;5086610;28;20150;-61
2023/09/16 09:35:28;;;;;;;8.70;3.63;;;;;;;;;;5088420;28;20346;-61
2023/09/16 09:37:55;;;;;;;7.97;3.22;;;;;;;;;;5088414;28;20051;-60
2023/09/16 09:40:22;;;;;;;6.05;3.38;;;;;;;;;;5087999;28;20067;-61
2023/09/16 09:42:49;;;;;;;9.10;3.30;;;;;;;;;;5088150;28;20118;-61
2023/09/16 09:45:17;;;;;;;5.55;2.55;;;;;;;;;;5088109;28;20040;-61
2023/09/16 09:47:44;;;;;;;5.38;3.53;;;;;;;;;;5087816;28;20124;-62
2023/09/16 09:50:14;;;;;;;4.78;3.40;;;;;;;;;;5087978;28;20044;-60
2023/09/16 09:52:53;;;;;;;7.30;3.33;;;;;;;;;;5088055;28;20131;-60
2023/09/16 09:55:23;;;;;;;8.20;3.08;;;;;;;;;;5088377;28;20372;-60
2023/09/16 09:57:51;;;;;;;6.18;3.20;;;;;;;;;;5084691;28;20101;-61
2023/09/16 10:00:19;;;;;;;4.63;2.65;;;;;;;;;;5067732;28;20048;-60
2023/09/16 10:02:47;;;;;;;6.45;3.00;;;;;;;;;;5067863;28;20143;-60
2023/09/16 10:05:15;;;;;;;6.10;2.97;;;;;;;;;;5067461;28;20395;-61
2023/09/16 10:07:42;;;;;;;7.40;3.53;;;;;;;;;;5067521;28;20044;-61
2023/09/16 10:10:11;;;;;;;5.68;3.30;;;;;;;;;;5067644;28;20094;-60
2023/09/16 10:12:38;;;;;;;4.43;2.47;;;;;;;;;;5067311;28;20047;-60
2023/09/16 10:15:07;;;;;;;7.57;3.25;;;;;;;;;;5067322;28;20135;-60
2023/09/16 10:17:33;;;;;;;6.70;3.25;;;;;;;;;;5067657;28;20135;-60
2023/09/16 10:20:00;;;;;;;6.35;3.13;;;;;;;;;;5067800;28;20067;-60
2023/09/16 10:22:27;;;;;;;4.80;3.10;;;;;;;;;;5067841;28;20041;-61
2023/09/16 10:24:53;;;;;;;6.50;2.72;;;;;;;;;;5067347;28;20098;-60
2023/09/16 10:27:22;;;;;;;5.88;3.30;;;;;;;;;;5067501;28;20131;-61
2023/09/16 10:29:49;;;;;;;4.45;2.72;;;;;;;;;;5067062;28;20124;-60
2023/09/16 10:32:16;;;;;;;5.65;3.03;;;;;;;;;;5080237;28;20044;-61
2023/09/16 10:34:46;;;;;;;6.63;3.17;;;;;;;;;;5091557;28;20058;-61
2023/09/16 10:37:15;;;;;;;6.00;3.50;;;;;;;;;;5091920;28;20040;-61
2023/09/16 10:39:43;;;;;;;4.95;3.30;;;;;;;;;;5091596;28;20040;-61
2023/09/16 10:42:10;;;;;;;6.15;2.72;;;;;;;;;;5091962;28;20048;-62
2023/09/16 10:44:37;;;;;;;7.70;3.00;;;;;;;;;;5091738;28;20083;-60
2023/09/16 10:47:05;;;;;;;6.88;3.47;;;;;;;;;;5091483;28;20500;-61
2023/09/16 10:49:31;;;;;;;6.43;2.72;;;;;;;;;;5091524;28;20047;-61
2023/09/16 10:52:01;;;;;;;5.28;3.15;;;;;;;;;;5091500;28;20101;-61
2023/09/16 10:54:54;;;;;;;4.45;3.08;;;;;;;;;;5091102;28;20735;-61
2023/09/16 10:57:24;;;;;;;4.90;3.40;;;;;;;;;;5088074;28;20040;-61
2023/09/16 10:59:51;;;;;;;5.80;2.80;;;;;;;;;;5070506;28;20084;-62
2023/09/16 11:02:24;;;;;;;6.55;2.80;;;;;;;;;;5070791;28;20075;-62
2023/09/16 11:04:51;;;;;;;7.15;2.78;;;;;;;;;;5071304;28;20398;-62
2023/09/16 11:07:19;;;;;;;7.45;2.50;;;;;;;;;;5070631;28;20123;-61
2023/09/16 11:09:48;;;;;;;6.47;3.30;;;;;;;;;;5070553;28;20133;-61
2023/09/16 11:12:16;;;;;;;4.60;3.08;;;;;;;;;;5070411;28;20044;-61
2023/09/16 11:14:43;;;;;;;5.55;2.90;;;;;;;;;;5070392;28;20127;-62
2023/09/16 11:17:11;;;;;;;5.05;2.92;;;;;;;;;;5070371;28;20055;-62
2023/09/16 11:19:37;;;;;;;4.80;2.40;;;;;;;;;;5070757;28;20060;-62
2023/09/16 11:22:06;;;;;;;3.38;2.53;;;;;;;;;;5070965;28;20047;-62
2023/09/16 11:24:34;;;;;;;6.03;2.42;;;;;;;;;;5070506;28;20190;-62
2023/09/16 11:27:01;;;;;;;4.18;2.72;;;;;;;;;;5070431;28;20044;-62
2023/09/16 11:29:28;;;;;;;5.30;2.95;;;;;;;;;;5070199;28;20437;-62
2023/09/16 11:31:55;;;;;;;4.25;2.33;;;;;;;;;;5079569;28;20036;-62
2023/09/16 11:34:23;;;;;;;4.45;2.60;;;;;;;;;;5090803;28;20048;-62
2023/09/16 11:36:52;;;;;;;3.70;2.22;;;;;;;;;;5090162;28;20044;-62
2023/09/16 11:39:21;;;;;;;4.50;2.40;;;;;;;;;;5090316;28;20043;-62
2023/09/16 11:41:48;;;;;;;3.53;2.53;;;;;;;;;;5089482;28;20043;-62
2023/09/16 11:44:15;;;;;;;3.55;2.65;;;;;;;;;;5088411;28;20051;-62
2023/09/16 11:46:41;;;;;;;6.65;2.85;;;;;;;;;;5088923;28;20119;-62
2023/09/16 11:49:08;;;;;;;4.43;2.47;;;;;;;;;;5090329;28;20047;-62
2023/09/16 11:51:38;;;;;;;3.67;2.22;;;;;;;;;;5089900;28;20040;-62
2023/09/16 11:54:04;;;;;;;2.50;2.03;;;;;;;;;;5090366;28;20040;-62
2023/09/16 11:56:34;;;;;;;4.95;2.65;;;;;;;;;;5090181;28;20036;-62
2023/09/16 11:59:02;;;;;;;5.90;2.45;;;;;;;;;;5089718;28;20388;-61
2023/09/16 12:01:29;;;;;;;6.47;3.30;;;;;;;;;;5090158;28;20117;-63
2023/09/16 12:03:57;;;;;;;3.67;2.20;;;;;;;;;;5090109;28;20476;-61
2023/09/16 12:06:28;;;;;;;5.45;2.95;;;;;;;;;;5089923;28;20581;-60
2023/09/16 12:08:55;;;;;;;4.53;2.88;;;;;;;;;;5089918;28;20050;-63
2023/09/16 12:11:22;;;;;;;7.13;3.13;;;;;;;;;;5089866;28;20055;-61
2023/09/16 12:13:48;;;;;;;4.63;2.88;;;;;;;;;;5090151;28;20123;-61
2023/09/16 12:16:15;;;;;;;5.55;3.05;;;;;;;;;;5089538;28;20134;-62
2023/09/16 12:18:43;;;;;;;4.28;3.13;;;;;;;;;;5089707;28;20048;-61
2023/09/16 12:21:10;;;;;;;3.78;2.53;;;;;;;;;;5089883;28;20074;-62
2023/09/16 12:23:38;;;;;;;7.72;2.70;;;;;;;;;;5089954;28;20140;-61
2023/09/16 12:26:07;;;;;;;4.57;3.17;;;;;;;;;;5089707;28;20050;-61
2023/09/16 12:28:33;;;;;;;7.13;3.00;;;;;;;;;;5089492;28;20040;-63
2023/09/16 12:30:59;;;;;;;4.18;2.50;;;;;;;;;;5089438;28;20040;-61
2023/09/16 12:33:38;;;;;;;3.67;2.63;;;;;;;;;;5089562;28;20044;-61
2023/09/16 12:36:05;;;;;;;4.43;2.83;;;;;;;;;;5089744;28;20131;-62
2023/09/16 12:38:32;;;;;;;5.57;2.63;;;;;;;;;;5089184;28;20101;-61
2023/09/16 12:41:00;;;;;;;4.63;2.88;;;;;;;;;;5089158;28;20139;-60
2023/09/16 12:43:27;;;;;;;4.20;1.83;;;;;;;;;;5088888;28;20093;-61
2023/09/16 12:45:54;;;;;;;6.28;2.47;;;;;;;;;;5089365;28;20040;-61
2023/09/16 12:48:21;;;;;;;4.80;2.85;;;;;;;;;;5088895;28;20095;-62
2023/09/16 12:50:47;;;;;;;4.43;2.47;;;;;;;;;;5088973;28;20132;-62
2023/09/16 12:53:14;;;;;;;4.90;2.70;;;;;;;;;;5088635;28;20047;-62
2023/09/16 12:55:41;;;;;;;5.35;2.55;;;;;;;;;;5088735;28;20083;-61
2023/09/16 12:58:09;;;;;;;4.20;2.60;;;;;;;;;;5089213;28;20044;-61
2023/09/16 13:00:36;;;;;;;4.45;2.55;;;;;;;;;;5088611;28;20047;-62
2023/09/16 13:03:03;;;;;;;6.53;3.28;;;;;;;;;;5088880;28;20044;-62
2023/09/16 13:05:30;;;;;;;5.22;2.80;;;;;;;;;;5088833;28;20040;-61
2023/09/16 13:07:57;;;;;;;5.43;2.40;;;;;;;;;;5088932;28;20626;-62
2023/09/16 13:10:24;;;;;;;4.38;2.83;;;;;;;;;;5088554;28;20083;-61
2023/09/16 13:12:51;;;;;;;3.75;2.60;;;;;;;;;;5088337;28;20036;-62
2023/09/16 13:15:20;;;;;;;8.40;2.28;;;;;;;;;;5088509;28;20111;-61
2023/09/16 13:17:48;;;;;;;4.53;2.77;;;;;;;;;;5088898;28;20048;-62
2023/09/16 13:20:18;;;;;;;3.17;2.40;;;;;;;;;;5088700;28;20392;-62
2023/09/16 13:22:45;;;;;;;6.00;2.47;;;;;;;;;;5088503;28;20051;-62
2023/09/16 13:25:32;;;;;;;4.53;2.47;;;;;;;;;;5088004;28;20205;-61
2023/09/16 13:28:09;;;;;;;3.20;2.40;;;;;;;;;;5088148;28;20112;-62
2023/09/16 13:30:36;;;;;;;5.07;2.28;;;;;;;;;;5088174;28;20387;-62
2023/09/16 13:33:07;;;;;;;5.22;3.35;;;;;;;;;;5088306;28;20056;-61
2023/09/16 13:35:38;;;;;;;6.90;2.20;;;;;;;;;;5088153;28;20070;-61
2023/09/16 13:38:05;;;;;;;5.72;1.90;;;;;;;;;;5087999;28;20036;-62
2023/09/16 13:40:32;;;;;;;4.13;2.35;;;;;;;;;;5088402;28;20131;-62
2023/09/16 13:42:59;;;;;;;13.77;2.63;;;;;;;;;;5088013;28;20073;-62
2023/09/16 13:45:28;;;;;;;4.63;2.40;;;;;;;;;;5088387;28;20105;-61
2023/09/16 13:48:07;;;;;;;3.35;2.10;;;;;;;;;;5087696;28;20128;-62
2023/09/16 13:50:34;;;;;;;3.95;2.40;;;;;;;;;;5088129;28;20043;-61
2023/09/16 13:53:04;;;;;;;4.65;2.15;;;;;;;;;;5088091;28;20119;-61
2023/09/16 13:55:30;;;;;;;3.07;2.20;;;;;;;;;;5088015;28;20139;-61
2023/09/16 13:57:57;;;;;;;4.57;2.67;;;;;;;;;;5088023;28;20324;-61
2023/09/16 14:00:24;;;;;;;15.85;4.78;;;;;;;;;;5087743;28;20059;-62
2023/09/16 14:02:50;;;;;;;17.35;4.38;;;;;;;;;;5087728;28;20089;-61
2023/09/16 14:05:17;;;;;;;4.35;2.80;;;;;;;;;;5088032;28;20483;-62
2023/09/16 14:07:43;;;;;;;6.60;2.63;;;;;;;;;;5087324;28;20105;-61
2023/09/16 14:10:10;;;;;;;5.20;2.50;;;;;;;;;;5087600;28;20093;-62
2023/09/16 14:12:36;;;;;;;6.20;2.95;;;;;;;;;;5087571;28;20374;-60
2023/09/16 14:15:04;;;;;;;6.93;2.28;;;;;;;;;;5087585;28;20054;-62
2023/09/16 14:17:31;;;;;;;3.67;2.20;;;;;;;;;;5087686;28;20128;-61
2023/09/16 14:19:57;;;;;;;4.30;2.20;;;;;;;;;;5087590;28;20060;-61
2023/09/16 14:22:29;;;;;;;4.53;2.58;;;;;;;;;;5087527;28;20076;-61
2023/09/16 14:24:56;;;;;;;2.83;2.05;;;;;;;;;;5087737;28;20111;-61
2023/09/16 14:27:22;;;;;;;5.53;2.40;;;;;;;;;;5087805;28;20369;-61
2023/09/16 14:29:50;;;;;;;8.82;2.70;;;;;;;;;;5087731;28;20460;-62
2023/09/16 14:32:16;;;;;;;4.28;2.50;;;;;;;;;;5087264;28;20073;-61
2023/09/16 14:34:43;;;;;;;12.10;3.40;;;;;;;;;;5087560;28;20043;-61
2023/09/16 14:37:09;;;;;;;8.32;2.95;;;;;;;;;;5087451;28;20040;-61
2023/09/16 14:39:36;;;;;;;3.10;2.30;;;;;;;;;;5087528;28;20055;-61
2023/09/16 14:42:02;;;;;;;3.47;1.92;;;;;;;;;;5087362;28;20043;-60